createdAt,value
2017-06-30T00:02:07.396Z,2.40
2017-06-30T00:04:33.836Z,2.80
2017-06-30T00:07:01.010Z,2.70
2017-06-30T00:09:28.194Z,2.80
2017-06-30T00:11:54.753Z,2.80
2017-06-30T00:14:21.182Z,2.97
2017-06-30T00:16:48.587Z,3.00
2017-06-30T00:19:15.065Z,3.17
2017-06-30T00:21:41.551Z,3.12
2017-06-30T00:24:08.022Z,3.10
2017-06-30T00:26:34.494Z,3.50
2017-06-30T00:29:01.690Z,3.47
2017-06-30T00:31:28.142Z,3.62
2017-06-30T00:33:54.574Z,3.72
2017-06-30T00:36:20.986Z,3.50
2017-06-30T00:38:47.432Z,3.87
2017-06-30T00:41:13.864Z,4.00
2017-06-30T00:43:40.300Z,3.85
2017-06-30T00:46:08.052Z,3.60
2017-06-30T00:48:34.972Z,3.60
2017-06-30T00:51:01.412Z,3.80
2017-06-30T00:53:28.614Z,3.80
2017-06-30T00:55:55.085Z,3.80
2017-06-30T00:58:21.615Z,3.85
2017-06-30T01:00:48.064Z,4.28
2017-06-30T01:03:15.225Z,4.30
2017-06-30T01:05:42.430Z,3.75
2017-06-30T01:08:08.925Z,4.20
2017-06-30T01:10:35.847Z,4.25
2017-06-30T01:13:02.280Z,4.28
2017-06-30T01:15:29.483Z,4.37
2017-06-30T01:17:55.919Z,4.10
2017-06-30T01:20:23.198Z,4.10
2017-06-30T01:22:49.615Z,3.72
2017-06-30T01:25:16.067Z,4.10
2017-06-30T01:27:42.517Z,4.10
2017-06-30T01:30:09.839Z,4.28
2017-06-30T01:32:36.326Z,4.10
2017-06-30T01:35:02.784Z,4.00
2017-06-30T01:37:29.229Z,4.12
2017-06-30T01:39:56.084Z,4.30
2017-06-30T01:42:22.630Z,3.50
2017-06-30T01:44:49.151Z,4.05
2017-06-30T01:47:15.613Z,3.45
2017-06-30T01:49:42.204Z,3.60
2017-06-30T01:52:08.662Z,3.43
2017-06-30T01:54:35.182Z,3.53
2017-06-30T01:57:01.778Z,3.80
2017-06-30T01:59:28.699Z,3.30
2017-06-30T02:01:55.205Z,3.47
2017-06-30T02:04:21.623Z,3.40
2017-06-30T02:06:48.071Z,3.30
2017-06-30T02:09:14.537Z,3.47
2017-06-30T02:11:41.023Z,3.30
2017-06-30T02:14:08.077Z,3.40
2017-06-30T02:16:35.594Z,3.30
2017-06-30T02:19:02.659Z,3.50
2017-06-30T02:21:29.201Z,3.28
2017-06-30T02:23:55.706Z,2.95
2017-06-30T02:26:22.157Z,3.40
2017-06-30T02:28:48.776Z,3.47
2017-06-30T02:31:15.740Z,3.30
2017-06-30T02:33:42.204Z,3.10
2017-06-30T02:36:08.667Z,3.45
2017-06-30T02:38:35.137Z,3.37
2017-06-30T02:41:01.567Z,3.40
2017-06-30T02:43:28.046Z,3.20
2017-06-30T02:45:54.582Z,3.50
2017-06-30T02:48:21.534Z,3.40
2017-06-30T02:50:48.716Z,3.33
2017-06-30T02:53:16.220Z,3.50
2017-06-30T02:55:42.668Z,3.90
2017-06-30T02:58:09.115Z,3.40
2017-06-30T03:00:36.411Z,3.30
2017-06-30T03:03:02.852Z,4.10
2017-06-30T03:05:29.293Z,3.40
2017-06-30T03:07:56.497Z,4.07
2017-06-30T03:10:23.029Z,3.47
2017-06-30T03:12:49.509Z,3.87
2017-06-30T03:15:15.925Z,3.60
2017-06-30T03:17:43.117Z,3.58
2017-06-30T03:20:09.549Z,3.50
2017-06-30T03:22:36.727Z,3.40
2017-06-30T03:25:03.936Z,4.05
2017-06-30T03:27:30.394Z,3.30
2017-06-30T03:29:57.162Z,3.62
2017-06-30T03:32:23.691Z,3.40
2017-06-30T03:34:50.165Z,3.58
2017-06-30T03:37:16.626Z,3.60
2017-06-30T03:39:43.042Z,3.50
2017-06-30T03:42:10.948Z,3.30
2017-06-30T03:44:37.420Z,3.70
2017-06-30T03:47:03.846Z,3.30
2017-06-30T03:49:31.238Z,3.50
2017-06-30T03:51:57.796Z,3.40
2017-06-30T03:54:24.353Z,3.00
2017-06-30T03:56:50.911Z,3.28
2017-06-30T03:59:17.361Z,3.20
2017-06-30T04:01:43.811Z,3.10
2017-06-30T04:04:10.981Z,3.10
2017-06-30T04:06:38.497Z,2.90
2017-06-30T04:09:05.048Z,2.87
2017-06-30T04:11:31.469Z,2.92
2017-06-30T04:13:58.687Z,2.85
2017-06-30T04:16:26.103Z,2.90
2017-06-30T04:18:52.573Z,2.70
2017-06-30T04:21:19.870Z,3.42
2017-06-30T04:23:46.433Z,3.00
2017-06-30T04:26:12.878Z,2.90
2017-06-30T04:28:40.330Z,2.62
2017-06-30T04:31:06.784Z,2.85
2017-06-30T04:33:33.280Z,2.80
2017-06-30T04:35:59.712Z,3.00
2017-06-30T04:38:27.008Z,2.87
2017-06-30T04:40:53.566Z,2.92
2017-06-30T04:43:20.034Z,2.78
2017-06-30T04:45:46.484Z,2.50
2017-06-30T04:48:12.928Z,2.70
2017-06-30T04:50:40.105Z,2.67
2017-06-30T04:53:06.555Z,2.50
2017-06-30T04:55:33.745Z,2.90
2017-06-30T04:58:00.229Z,2.33
2017-06-30T05:00:26.781Z,2.30
2017-06-30T05:02:53.225Z,2.60
2017-06-30T05:05:19.904Z,2.50
2017-06-30T05:07:46.395Z,2.60
2017-06-30T05:10:12.823Z,2.83
2017-06-30T05:12:39.329Z,2.60
2017-06-30T05:15:06.500Z,2.58
2017-06-30T05:17:33.678Z,2.80
2017-06-30T05:20:00.909Z,2.90
2017-06-30T05:22:27.317Z,3.10
2017-06-30T05:24:53.744Z,2.80
2017-06-30T05:27:20.932Z,2.80
2017-06-30T05:29:48.088Z,2.60
2017-06-30T05:32:15.232Z,2.83
2017-06-30T05:34:41.656Z,3.20
2017-06-30T05:37:08.192Z,3.00
2017-06-30T05:39:34.698Z,3.00
2017-06-30T05:42:01.540Z,3.05
2017-06-30T05:44:27.969Z,3.05
2017-06-30T05:46:54.425Z,3.30
2017-06-30T05:49:21.803Z,3.20
2017-06-30T05:51:48.233Z,3.00
2017-06-30T05:54:14.653Z,3.17
2017-06-30T05:56:41.683Z,3.00
2017-06-30T05:59:08.123Z,3.30
2017-06-30T06:01:35.289Z,3.50
2017-06-30T06:04:02.467Z,2.80
2017-06-30T06:06:29.653Z,3.17
2017-06-30T06:08:56.149Z,2.80
2017-06-30T06:11:22.666Z,2.80
2017-06-30T06:13:49.858Z,2.80
2017-06-30T06:16:16.400Z,2.70
2017-06-30T06:18:42.850Z,2.92
2017-06-30T06:21:10.017Z,2.65
2017-06-30T06:23:37.253Z,2.50
2017-06-30T06:26:03.706Z,2.30
2017-06-30T06:28:30.770Z,2.03
2017-06-30T06:30:57.224Z,2.10
2017-06-30T06:33:23.685Z,2.40
2017-06-30T06:36:05.053Z,2.70
2017-06-30T06:38:31.494Z,2.80
2017-06-30T06:40:57.997Z,2.80
2017-06-30T06:43:24.599Z,3.00
2017-06-30T06:45:51.158Z,3.30
2017-06-30T06:48:17.720Z,3.35
2017-06-30T06:50:44.159Z,3.62
2017-06-30T06:53:11.395Z,4.40
2017-06-30T06:55:38.498Z,4.10
2017-06-30T06:58:05.711Z,4.70
2017-06-30T07:00:32.173Z,5.00
2017-06-30T07:02:58.607Z,4.68
2017-06-30T07:05:25.081Z,4.20
2017-06-30T07:07:51.520Z,4.15
2017-06-30T07:10:17.971Z,4.35
2017-06-30T07:12:44.531Z,3.90
2017-06-30T07:15:11.021Z,3.60
2017-06-30T07:17:37.494Z,3.60
2017-06-30T07:20:04.470Z,3.47
2017-06-30T07:22:31.068Z,3.42
2017-06-30T07:24:58.342Z,3.20
2017-06-30T07:27:24.762Z,2.80
2017-06-30T07:29:51.226Z,2.50
2017-06-30T07:32:17.696Z,2.55
2017-06-30T07:34:44.987Z,2.60
2017-06-30T07:37:11.545Z,2.60
2017-06-30T07:39:37.993Z,2.70
2017-06-30T07:42:05.179Z,3.08
2017-06-30T07:44:31.610Z,2.80
2017-06-30T07:46:58.789Z,2.50
2017-06-30T07:49:26.074Z,2.70
2017-06-30T07:51:52.555Z,2.60
2017-06-30T07:54:19.004Z,2.20
2017-06-30T07:56:45.477Z,2.20
2017-06-30T07:59:11.902Z,2.20
2017-06-30T08:01:38.322Z,1.75
2017-06-30T08:04:04.817Z,1.73
2017-06-30T08:06:31.302Z,1.80
2017-06-30T08:08:57.740Z,1.52
2017-06-30T08:11:24.282Z,1.50
2017-06-30T08:13:50.714Z,1.55
2017-06-30T08:16:17.202Z,1.40
2017-06-30T08:18:43.710Z,1.30
2017-06-30T08:21:10.183Z,1.30
2017-06-30T08:23:38.053Z,1.30
2017-06-30T08:26:04.543Z,1.20
2017-06-30T08:28:31.828Z,1.20
2017-06-30T08:30:58.298Z,1.30
2017-06-30T08:33:24.944Z,1.30
2017-06-30T08:35:51.424Z,1.25
2017-06-30T08:38:17.870Z,1.35
2017-06-30T08:40:44.417Z,1.50
2017-06-30T08:43:10.971Z,1.43
2017-06-30T08:45:38.127Z,1.70
2017-06-30T08:48:05.356Z,1.40
2017-06-30T08:50:31.813Z,1.40
2017-06-30T08:52:58.345Z,1.27
2017-06-30T08:55:24.893Z,1.30
2017-06-30T08:57:51.343Z,1.20
2017-06-30T09:00:18.565Z,1.20
2017-06-30T09:02:45.077Z,1.35
2017-06-30T09:05:12.977Z,1.23
2017-06-30T09:07:39.438Z,1.50
2017-06-30T09:10:06.065Z,1.37
2017-06-30T09:12:33.464Z,1.20
2017-06-30T09:14:59.906Z,1.40
2017-06-30T09:17:27.190Z,1.60
2017-06-30T09:19:53.746Z,1.50
2017-06-30T09:22:20.240Z,1.40
2017-06-30T09:24:46.762Z,1.50
2017-06-30T09:27:13.936Z,1.60
2017-06-30T09:29:41.513Z,1.40
2017-06-30T09:32:07.966Z,1.37
2017-06-30T09:34:35.119Z,1.15
2017-06-30T09:37:01.905Z,1.35
2017-06-30T09:39:28.311Z,1.40
2017-06-30T09:41:55.427Z,1.30
2017-06-30T09:44:21.941Z,1.60
2017-06-30T09:46:48.755Z,1.23
2017-06-30T09:49:15.803Z,1.30
2017-06-30T09:51:43.097Z,1.20
2017-06-30T09:54:09.570Z,1.00
2017-06-30T09:56:36.224Z,1.05
2017-06-30T09:59:02.654Z,1.00
2017-06-30T10:01:29.834Z,1.30
2017-06-30T10:03:57.119Z,1.10
2017-06-30T10:06:23.586Z,1.00
2017-06-30T10:08:50.030Z,0.95
2017-06-30T10:11:17.461Z,1.20
2017-06-30T10:13:43.966Z,1.10
2017-06-30T10:16:10.419Z,1.25
2017-06-30T10:18:36.978Z,1.10
2017-06-30T10:21:03.471Z,1.10
2017-06-30T10:23:30.018Z,1.10
2017-06-30T10:26:11.483Z,1.30
2017-06-30T10:28:37.935Z,1.10
2017-06-30T10:31:05.199Z,1.50
2017-06-30T10:33:32.469Z,1.10
2017-06-30T10:35:59.764Z,1.00
2017-06-30T10:38:26.425Z,1.10
2017-06-30T10:40:53.033Z,0.90
2017-06-30T10:43:19.743Z,1.40
2017-06-30T10:45:48.079Z,0.90
2017-06-30T10:48:14.653Z,1.00
2017-06-30T10:50:41.539Z,1.00
2017-06-30T10:53:08.842Z,1.10
2017-06-30T10:55:35.397Z,1.25
2017-06-30T10:58:02.140Z,1.50
2017-06-30T11:00:29.748Z,1.02
2017-06-30T11:02:56.406Z,1.30
2017-06-30T11:05:23.166Z,1.00
2017-06-30T11:07:49.628Z,1.00
2017-06-30T11:10:16.396Z,1.20
2017-06-30T11:12:42.848Z,1.20
2017-06-30T11:15:09.404Z,1.20
2017-06-30T11:17:36.379Z,1.33
2017-06-30T11:20:02.928Z,1.50
2017-06-30T11:22:29.898Z,1.02
2017-06-30T11:24:56.669Z,1.20
2017-06-30T11:27:23.102Z,1.20
2017-06-30T11:29:49.581Z,1.30
2017-06-30T11:32:16.435Z,1.10
2017-06-30T11:34:43.863Z,1.37
2017-06-30T11:37:10.318Z,1.30
2017-06-30T11:39:36.877Z,1.50
2017-06-30T11:42:03.323Z,1.40
2017-06-30T11:44:29.750Z,1.50
2017-06-30T11:46:56.298Z,1.62
2017-06-30T11:49:22.762Z,4.25
2017-06-30T11:51:49.218Z,1.40
2017-06-30T11:54:16.576Z,1.50
2017-06-30T11:56:43.728Z,1.30
2017-06-30T11:59:10.281Z,1.40
2017-06-30T12:01:36.671Z,1.10
2017-06-30T12:04:03.116Z,1.27
2017-06-30T12:06:30.401Z,1.30
2017-06-30T12:08:56.960Z,1.30
2017-06-30T12:11:23.407Z,1.20
2017-06-30T12:13:50.687Z,1.70
2017-06-30T12:16:17.183Z,1.30
2017-06-30T12:18:44.281Z,1.45
2017-06-30T12:21:10.698Z,1.40
2017-06-30T12:23:37.167Z,1.30
2017-06-30T12:26:03.615Z,1.20
2017-06-30T12:28:30.079Z,1.20
2017-06-30T12:30:56.599Z,1.30
2017-06-30T12:33:22.946Z,1.20
2017-06-30T12:35:49.487Z,1.37
2017-06-30T12:38:16.795Z,1.00
2017-06-30T12:40:43.309Z,1.20
2017-06-30T12:43:09.799Z,1.55
2017-06-30T12:45:36.304Z,1.00
2017-06-30T12:48:02.779Z,1.20
2017-06-30T12:50:29.213Z,1.00
2017-06-30T12:52:55.730Z,1.00
2017-06-30T12:55:22.209Z,0.90
2017-06-30T12:57:48.656Z,1.48
2017-06-30T13:00:15.204Z,1.00
2017-06-30T13:02:41.657Z,1.10
2017-06-30T13:05:08.145Z,1.27
2017-06-30T13:07:34.634Z,1.00
2017-06-30T13:10:01.109Z,1.10
2017-06-30T13:12:28.298Z,0.90
2017-06-30T13:14:55.207Z,1.10
2017-06-30T13:17:21.655Z,1.00
2017-06-30T13:19:48.138Z,1.30
2017-06-30T13:22:14.618Z,1.20
2017-06-30T13:24:41.906Z,1.20
2017-06-30T13:27:08.405Z,1.35
2017-06-30T13:29:35.119Z,1.10
2017-06-30T13:32:01.596Z,1.10
2017-06-30T13:34:28.140Z,1.48
2017-06-30T13:36:54.698Z,1.30
2017-06-30T13:39:21.259Z,1.20
2017-06-30T13:41:47.814Z,1.30
2017-06-30T13:44:14.373Z,1.40
2017-06-30T13:46:41.434Z,1.50
2017-06-30T13:49:08.633Z,1.20
2017-06-30T13:51:35.109Z,1.00
2017-06-30T13:54:01.632Z,1.20
2017-06-30T13:56:28.501Z,1.05
2017-06-30T13:58:55.359Z,0.90
2017-06-30T14:01:21.809Z,1.30
2017-06-30T14:03:48.964Z,1.30
2017-06-30T14:06:16.206Z,1.10
2017-06-30T14:08:42.635Z,1.10
2017-06-30T14:11:09.079Z,1.00
2017-06-30T14:13:35.543Z,0.90
2017-06-30T14:16:02.091Z,1.20
2017-06-30T14:18:28.543Z,1.30
2017-06-30T14:20:55.305Z,1.00
2017-06-30T14:23:21.805Z,1.17
2017-06-30T14:25:48.271Z,1.50
2017-06-30T14:28:14.697Z,2.10
2017-06-30T14:30:41.188Z,1.50
2017-06-30T14:33:07.660Z,1.60
2017-06-30T14:35:34.841Z,1.10
2017-06-30T14:38:02.135Z,1.20
2017-06-30T14:40:28.588Z,1.00
2017-06-30T14:42:55.784Z,1.25
2017-06-30T14:45:22.263Z,0.90
2017-06-30T14:47:49.360Z,0.75
2017-06-30T14:50:16.052Z,1.17
2017-06-30T14:52:42.610Z,0.90
2017-06-30T14:55:09.170Z,1.00
2017-06-30T14:57:35.607Z,1.20
2017-06-30T15:00:03.107Z,1.20
2017-06-30T15:02:29.575Z,0.88
2017-06-30T15:04:56.143Z,1.05
2017-06-30T15:07:22.583Z,1.00
2017-06-30T15:09:49.029Z,1.10
2017-06-30T15:12:15.485Z,1.95
2017-06-30T15:14:41.987Z,1.33
2017-06-30T15:17:08.684Z,1.00
2017-06-30T15:19:35.904Z,0.93
2017-06-30T15:22:02.484Z,1.00
2017-06-30T15:24:28.953Z,0.82
2017-06-30T15:26:55.936Z,1.00
2017-06-30T15:29:23.156Z,0.90
2017-06-30T15:31:49.584Z,0.82
2017-06-30T15:34:16.765Z,1.10
2017-06-30T15:36:43.222Z,1.20
2017-06-30T15:39:09.776Z,0.80
2017-06-30T15:41:36.218Z,0.90
2017-06-30T15:44:03.399Z,0.93
2017-06-30T15:46:29.841Z,0.90
2017-06-30T15:48:56.321Z,1.00
2017-06-30T15:51:22.782Z,1.20
2017-06-30T15:53:49.270Z,1.50
2017-06-30T15:58:01.593Z,2.00
2017-06-30T16:00:28.975Z,1.30
2017-06-30T16:02:55.454Z,1.35
2017-06-30T16:05:22.665Z,1.10
2017-06-30T16:07:49.141Z,1.15
2017-06-30T16:10:15.638Z,1.30
2017-06-30T16:12:42.813Z,1.10
2017-06-30T16:15:10.002Z,1.00
2017-06-30T16:17:37.282Z,0.90
2017-06-30T16:20:03.767Z,0.93
2017-06-30T16:22:30.209Z,1.15
2017-06-30T16:24:56.660Z,1.00
2017-06-30T16:27:23.910Z,1.00
2017-06-30T16:29:51.092Z,1.10
2017-06-30T16:32:18.368Z,1.20
2017-06-30T16:34:44.843Z,0.95
2017-06-30T16:37:11.382Z,1.17
2017-06-30T16:39:37.871Z,1.10
2017-06-30T16:42:04.400Z,0.93
2017-06-30T16:44:30.955Z,1.00
2017-06-30T16:46:57.514Z,0.90
2017-06-30T16:49:23.919Z,1.10
2017-06-30T16:51:50.931Z,0.90
2017-06-30T16:54:18.211Z,0.90
2017-06-30T16:56:44.656Z,0.90
2017-06-30T16:59:11.941Z,0.90
2017-06-30T17:01:38.387Z,1.10
2017-06-30T17:04:05.633Z,1.10
2017-06-30T17:06:32.097Z,0.70
2017-06-30T17:08:59.285Z,1.00
2017-06-30T17:11:26.463Z,1.00
2017-06-30T17:13:52.928Z,2.05
2017-06-30T17:16:19.406Z,0.90
2017-06-30T17:18:45.948Z,3.80
2017-06-30T17:21:12.423Z,1.12
2017-06-30T17:23:38.958Z,1.05
2017-06-30T17:26:05.414Z,1.05
2017-06-30T17:28:31.884Z,1.10
2017-06-30T17:30:58.329Z,1.00
2017-06-30T17:33:24.885Z,1.20
2017-06-30T17:35:51.340Z,1.03
2017-06-30T17:38:18.562Z,1.30
2017-06-30T17:40:45.028Z,1.30
2017-06-30T17:43:11.502Z,1.20
2017-06-30T17:45:38.763Z,1.70
2017-06-30T17:48:05.311Z,1.20
2017-06-30T17:50:31.776Z,1.10
2017-06-30T17:52:58.273Z,1.20
2017-06-30T17:55:24.745Z,1.48
2017-06-30T17:57:51.177Z,1.00
2017-06-30T18:00:18.380Z,1.27
2017-06-30T18:02:44.915Z,1.10
2017-06-30T18:05:11.478Z,1.30
2017-06-30T18:07:37.964Z,1.00
2017-06-30T18:10:04.471Z,1.00
2017-06-30T18:12:31.767Z,1.02
2017-06-30T18:14:58.249Z,1.10
2017-06-30T18:17:24.734Z,1.10
2017-06-30T18:19:51.234Z,1.30
2017-06-30T18:22:17.792Z,1.00
2017-06-30T18:24:44.350Z,1.23
2017-06-30T18:27:10.912Z,1.30
2017-06-30T18:29:37.390Z,1.40
2017-06-30T18:32:03.864Z,1.10
2017-06-30T18:34:30.386Z,1.00
2017-06-30T18:36:56.857Z,1.17
2017-06-30T18:39:23.351Z,1.20
2017-06-30T18:41:49.795Z,1.10
2017-06-30T18:44:16.252Z,1.40
2017-06-30T18:46:42.867Z,1.23
2017-06-30T18:49:09.383Z,1.50
2017-06-30T18:51:36.393Z,1.20
2017-06-30T18:54:03.483Z,1.20
2017-06-30T18:56:29.973Z,1.10
2017-06-30T18:58:56.445Z,1.73
2017-06-30T19:01:22.928Z,1.50
2017-06-30T19:03:49.446Z,1.15
2017-06-30T19:06:16.125Z,1.50
2017-06-30T19:08:42.868Z,1.50
2017-06-30T19:11:10.186Z,1.37
2017-06-30T19:13:36.666Z,1.40
2017-06-30T19:16:03.206Z,1.30
2017-06-30T19:18:29.762Z,1.20
2017-06-30T19:20:56.320Z,1.12
2017-06-30T19:23:22.876Z,1.20
2017-06-30T19:25:49.436Z,1.30
2017-06-30T19:28:15.996Z,1.30
2017-06-30T19:30:42.554Z,1.40
2017-06-30T19:33:09.067Z,1.40
2017-06-30T19:35:35.566Z,1.58
2017-06-30T19:38:02.123Z,1.60
2017-06-30T19:40:28.683Z,1.67
2017-06-30T19:42:56.352Z,1.70
2017-06-30T19:45:23.643Z,1.90
2017-06-30T19:47:50.099Z,5.40
2017-06-30T19:50:16.559Z,6.15
2017-06-30T19:52:43.113Z,7.00
2017-06-30T19:55:09.600Z,8.40
2017-06-30T19:57:36.127Z,8.73
2017-06-30T20:00:02.688Z,8.70
2017-06-30T20:02:29.156Z,6.80
2017-06-30T20:04:55.803Z,5.20
2017-06-30T20:07:22.668Z,4.55
2017-06-30T20:09:49.595Z,3.65
2017-06-30T20:12:16.144Z,3.22
2017-06-30T20:14:42.875Z,2.80
2017-06-30T20:17:09.412Z,2.30
2017-06-30T20:19:36.359Z,1.98
2017-06-30T20:22:03.810Z,2.07
2017-06-30T20:24:30.314Z,2.30
2017-06-30T20:26:56.766Z,2.30
2017-06-30T20:29:24.047Z,2.43
2017-06-30T20:31:50.604Z,2.37
2017-06-30T20:34:17.043Z,2.40
2017-06-30T20:36:44.333Z,2.33
2017-06-30T20:39:11.813Z,2.40
2017-06-30T20:41:38.271Z,2.50
2017-06-30T20:44:04.829Z,2.70
2017-06-30T20:46:31.263Z,2.40
2017-06-30T20:48:58.558Z,2.10
2017-06-30T20:51:25.651Z,2.92
2017-06-30T20:53:52.152Z,2.70
2017-06-30T20:56:19.340Z,2.62
2017-06-30T20:58:46.551Z,2.67
2017-06-30T21:01:13.018Z,2.83
2017-06-30T21:03:39.646Z,2.80
2017-06-30T21:06:06.134Z,2.67
2017-06-30T21:08:32.663Z,3.00
2017-06-30T21:10:59.218Z,2.60
2017-06-30T21:13:25.687Z,3.08
2017-06-30T21:15:52.162Z,3.20
2017-06-30T21:18:18.630Z,3.08
2017-06-30T21:20:45.696Z,2.80
2017-06-30T21:23:12.331Z,3.00
2017-06-30T21:25:38.875Z,2.90
2017-06-30T21:28:05.327Z,2.80
2017-06-30T21:30:32.535Z,2.97
2017-06-30T21:32:58.970Z,2.70
2017-06-30T21:35:25.425Z,2.60
2017-06-30T21:37:51.982Z,2.40
2017-06-30T21:40:18.542Z,2.72
2017-06-30T21:42:45.400Z,2.70
2017-06-30T21:45:11.960Z,2.70
2017-06-30T21:47:38.437Z,2.50
2017-06-30T21:50:04.922Z,2.70
2017-06-30T21:52:31.490Z,2.60
2017-06-30T21:54:58.295Z,2.30
2017-06-30T21:57:24.725Z,2.37
2017-06-30T21:59:51.914Z,2.50
2017-06-30T22:02:19.200Z,2.30
2017-06-30T22:04:45.650Z,2.10
2017-06-30T22:07:12.212Z,2.05
2017-06-30T22:09:39.176Z,2.10
2017-06-30T22:12:05.735Z,2.55
2017-06-30T22:14:32.186Z,2.30
2017-06-30T22:16:59.477Z,2.60
2017-06-30T22:19:25.964Z,2.03
2017-06-30T22:21:52.481Z,2.27
2017-06-30T22:24:19.549Z,2.00
2017-06-30T22:26:46.023Z,2.00
2017-06-30T22:29:12.473Z,2.20
2017-06-30T22:31:38.913Z,2.05
2017-06-30T22:34:06.108Z,1.92
2017-06-30T22:36:32.551Z,2.00
2017-06-30T22:38:59.104Z,1.90
2017-06-30T22:41:25.565Z,2.10
2017-06-30T22:43:52.053Z,2.10
2017-06-30T22:46:18.467Z,1.90
2017-06-30T22:48:45.692Z,1.80
2017-06-30T22:51:13.111Z,1.90
2017-06-30T22:53:40.602Z,1.87
2017-06-30T22:56:07.164Z,1.87
2017-06-30T22:58:33.626Z,1.80
2017-06-30T23:01:00.176Z,1.90
2017-06-30T23:03:26.625Z,1.70
2017-06-30T23:05:53.911Z,1.90
2017-06-30T23:08:20.367Z,1.60
2017-06-30T23:10:46.922Z,1.75
2017-06-30T23:13:13.359Z,1.73
2017-06-30T23:15:40.555Z,1.60
2017-06-30T23:18:07.121Z,1.90
2017-06-30T23:20:33.581Z,1.80
2017-06-30T23:23:00.036Z,1.70
2017-06-30T23:25:26.681Z,1.67
2017-06-30T23:27:53.197Z,1.80
2017-06-30T23:30:19.799Z,1.70
2017-06-30T23:32:46.292Z,1.60
2017-06-30T23:35:12.915Z,1.80
2017-06-30T23:37:39.425Z,1.90
2017-06-30T23:40:05.999Z,1.62
2017-06-30T23:42:32.593Z,1.92
2017-06-30T23:44:59.148Z,2.00
2017-06-30T23:47:25.810Z,1.80
2017-06-30T23:50:14.764Z,1.70
2017-06-30T23:52:41.273Z,1.80
2017-06-30T23:55:07.862Z,2.20
2017-06-30T23:57:35.076Z,1.60
